sensor_id;sensor_type;location;lat;lon;timestamp;temperature;humidity
10062;DHT22;5070;52.382;5.270;2024-03-25T00:00:45;22.30;59.90
10062;DHT22;5070;52.382;5.270;2024-03-25T00:03:12;22.20;59.90
10062;DHT22;5070;52.382;5.270;2024-03-25T00:05:39;22.20;59.90
10062;DHT22;5070;52.382;5.270;2024-03-25T00:08:06;22.20;59.90
10062;DHT22;5070;52.382;5.270;2024-03-25T00:10:33;22.20;59.90
10062;DHT22;5070;52.382;5.270;2024-03-25T00:12:59;22.20;60.00
10062;DHT22;5070;52.382;5.270;2024-03-25T00:15:26;22.10;59.90
10062;DHT22;5070;52.382;5.270;2024-03-25T00:17:52;22.20;59.90
10062;DHT22;5070;52.382;5.270;2024-03-25T00:20:21;22.20;59.80
10062;DHT22;5070;52.382;5.270;2024-03-25T00:22:47;22.10;60.40
10062;DHT22;5070;52.382;5.270;2024-03-25T00:25:14;22.10;59.80
10062;DHT22;5070;52.382;5.270;2024-03-25T00:27:42;22.10;59.80
10062;DHT22;5070;52.382;5.270;2024-03-25T00:30:11;22.10;59.80
10062;DHT22;5070;52.382;5.270;2024-03-25T00:32:37;22.10;59.70
10062;DHT22;5070;52.382;5.270;2024-03-25T00:35:05;22.10;59.60
10062;DHT22;5070;52.382;5.270;2024-03-25T00:37:32;22.00;59.70
10062;DHT22;5070;52.382;5.270;2024-03-25T00:39:59;22.00;59.70
10062;DHT22;5070;52.382;5.270;2024-03-25T00:42:26;22.00;59.70
10062;DHT22;5070;52.382;5.270;2024-03-25T00:44:53;22.00;59.70
10062;DHT22;5070;52.382;5.270;2024-03-25T00:47:19;22.00;59.70
10062;DHT22;5070;52.382;5.270;2024-03-25T00:49:46;21.90;59.60
10062;DHT22;5070;52.382;5.270;2024-03-25T00:52:12;21.90;59.60
10062;DHT22;5070;52.382;5.270;2024-03-25T00:54:40;21.90;59.60
10062;DHT22;5070;52.382;5.270;2024-03-25T00:57:06;21.90;59.50
10062;DHT22;5070;52.382;5.270;2024-03-25T00:59:33;21.90;59.50
10062;DHT22;5070;52.382;5.270;2024-03-25T01:02:00;21.90;59.60
10062;DHT22;5070;52.382;5.270;2024-03-25T01:04:29;21.80;59.50
10062;DHT22;5070;52.382;5.270;2024-03-25T01:06:56;21.80;59.50
10062;DHT22;5070;52.382;5.270;2024-03-25T01:09:23;21.80;59.50
10062;DHT22;5070;52.382;5.270;2024-03-25T01:11:52;21.80;59.50
10062;DHT22;5070;52.382;5.270;2024-03-25T01:14:19;21.70;59.40
10062;DHT22;5070;52.382;5.270;2024-03-25T01:16:45;21.70;59.30
10062;DHT22;5070;52.382;5.270;2024-03-25T01:19:12;21.70;59.50
10062;DHT22;5070;52.382;5.270;2024-03-25T01:21:38;21.70;59.50
10062;DHT22;5070;52.382;5.270;2024-03-25T01:24:06;21.60;59.40
10062;DHT22;5070;52.382;5.270;2024-03-25T01:26:32;21.60;59.20
10062;DHT22;5070;52.382;5.270;2024-03-25T01:29:00;21.60;59.30
10062;DHT22;5070;52.382;5.270;2024-03-25T01:31:26;21.60;59.20
10062;DHT22;5070;52.382;5.270;2024-03-25T01:33:53;21.60;59.20
10062;DHT22;5070;52.382;5.270;2024-03-25T01:36:19;21.60;59.10
10062;DHT22;5070;52.382;5.270;2024-03-25T01:38:46;21.50;59.20
10062;DHT22;5070;52.382;5.270;2024-03-25T01:41:13;21.50;59.10
10062;DHT22;5070;52.382;5.270;2024-03-25T01:43:41;21.50;59.10
10062;DHT22;5070;52.382;5.270;2024-03-25T01:46:09;21.50;59.10
10062;DHT22;5070;52.382;5.270;2024-03-25T01:48:36;21.40;59.10
10062;DHT22;5070;52.382;5.270;2024-03-25T01:51:03;21.40;59.10
10062;DHT22;5070;52.382;5.270;2024-03-25T01:53:30;21.40;59.10
10062;DHT22;5070;52.382;5.270;2024-03-25T01:55:58;21.40;59.00
10062;DHT22;5070;52.382;5.270;2024-03-25T01:58:25;21.30;59.10
10062;DHT22;5070;52.382;5.270;2024-03-25T02:00:52;21.30;59.00
10062;DHT22;5070;52.382;5.270;2024-03-25T02:03:22;21.30;59.00
10062;DHT22;5070;52.382;5.270;2024-03-25T02:05:51;21.30;59.10
10062;DHT22;5070;52.382;5.270;2024-03-25T02:08:19;21.30;59.00
10062;DHT22;5070;52.382;5.270;2024-03-25T02:10:47;21.20;59.10
10062;DHT22;5070;52.382;5.270;2024-03-25T02:13:14;21.20;59.00
10062;DHT22;5070;52.382;5.270;2024-03-25T02:15:41;21.20;58.90
10062;DHT22;5070;52.382;5.270;2024-03-25T02:18:08;21.20;59.00
10062;DHT22;5070;52.382;5.270;2024-03-25T02:20:35;21.20;59.00
10062;DHT22;5070;52.382;5.270;2024-03-25T02:23:02;21.10;59.00
10062;DHT22;5070;52.382;5.270;2024-03-25T02:25:31;21.10;59.00
10062;DHT22;5070;52.382;5.270;2024-03-25T02:28:01;21.10;58.90
10062;DHT22;5070;52.382;5.270;2024-03-25T02:30:27;21.10;59.00
10062;DHT22;5070;52.382;5.270;2024-03-25T02:32:54;21.10;58.90
10062;DHT22;5070;52.382;5.270;2024-03-25T02:35:21;21.00;58.90
10062;DHT22;5070;52.382;5.270;2024-03-25T02:37:50;21.00;58.90
10062;DHT22;5070;52.382;5.270;2024-03-25T02:40:16;21.00;58.90
10062;DHT22;5070;52.382;5.270;2024-03-25T02:42:44;21.00;59.00
10062;DHT22;5070;52.382;5.270;2024-03-25T02:45:12;21.00;58.90
10062;DHT22;5070;52.382;5.270;2024-03-25T02:47:39;21.00;58.90
10062;DHT22;5070;52.382;5.270;2024-03-25T02:50:06;20.90;58.90
10062;DHT22;5070;52.382;5.270;2024-03-25T02:52:33;20.90;58.90
10062;DHT22;5070;52.382;5.270;2024-03-25T02:54:59;20.90;58.80
10062;DHT22;5070;52.382;5.270;2024-03-25T02:57:26;20.90;58.80
10062;DHT22;5070;52.382;5.270;2024-03-25T02:59:52;20.90;58.80
10062;DHT22;5070;52.382;5.270;2024-03-25T03:02:21;20.80;58.60
10062;DHT22;5070;52.382;5.270;2024-03-25T03:04:47;20.80;58.60
10062;DHT22;5070;52.382;5.270;2024-03-25T03:07:14;20.80;58.70
10062;DHT22;5070;52.382;5.270;2024-03-25T03:09:40;20.80;58.60
10062;DHT22;5070;52.382;5.270;2024-03-25T03:12:07;20.80;58.70
10062;DHT22;5070;52.382;5.270;2024-03-25T03:14:33;20.80;58.70
10062;DHT22;5070;52.382;5.270;2024-03-25T03:17:00;20.80;58.60
10062;DHT22;5070;52.382;5.270;2024-03-25T03:19:32;20.70;58.50
10062;DHT22;5070;52.382;5.270;2024-03-25T03:22:02;20.70;58.50
10062;DHT22;5070;52.382;5.270;2024-03-25T03:24:28;20.70;58.50
10062;DHT22;5070;52.382;5.270;2024-03-25T03:26:55;20.70;58.50
10062;DHT22;5070;52.382;5.270;2024-03-25T03:29:21;20.70;58.40
10062;DHT22;5070;52.382;5.270;2024-03-25T03:31:48;20.70;58.50
10062;DHT22;5070;52.382;5.270;2024-03-25T03:34:14;20.60;58.50
10062;DHT22;5070;52.382;5.270;2024-03-25T03:36:42;20.60;58.40
10062;DHT22;5070;52.382;5.270;2024-03-25T03:39:08;20.60;58.40
10062;DHT22;5070;52.382;5.270;2024-03-25T03:41:36;20.60;58.40
10062;DHT22;5070;52.382;5.270;2024-03-25T03:44:02;20.60;58.40
10062;DHT22;5070;52.382;5.270;2024-03-25T03:46:32;20.60;58.30
10062;DHT22;5070;52.382;5.270;2024-03-25T03:48:58;20.60;58.30
10062;DHT22;5070;52.382;5.270;2024-03-25T03:51:25;20.50;58.30
10062;DHT22;5070;52.382;5.270;2024-03-25T03:53:53;20.50;58.30
10062;DHT22;5070;52.382;5.270;2024-03-25T03:56:20;20.50;58.30
10062;DHT22;5070;52.382;5.270;2024-03-25T03:58:46;20.50;58.20
10062;DHT22;5070;52.382;5.270;2024-03-25T04:01:14;20.40;58.30
10062;DHT22;5070;52.382;5.270;2024-03-25T04:03:41;20.40;58.30
10062;DHT22;5070;52.382;5.270;2024-03-25T04:06:09;20.40;58.30
10062;DHT22;5070;52.382;5.270;2024-03-25T04:08:36;20.40;58.30
10062;DHT22;5070;52.382;5.270;2024-03-25T04:11:05;20.40;58.30
10062;DHT22;5070;52.382;5.270;2024-03-25T04:13:32;20.40;58.20
10062;DHT22;5070;52.382;5.270;2024-03-25T04:16:03;20.40;58.30
10062;DHT22;5070;52.382;5.270;2024-03-25T04:18:30;20.30;58.20
10062;DHT22;5070;52.382;5.270;2024-03-25T04:20:57;20.30;58.20
10062;DHT22;5070;52.382;5.270;2024-03-25T04:23:24;20.30;58.10
10062;DHT22;5070;52.382;5.270;2024-03-25T04:25:51;20.30;58.20
10062;DHT22;5070;52.382;5.270;2024-03-25T04:28:19;20.30;58.20
10062;DHT22;5070;52.382;5.270;2024-03-25T04:30:51;20.30;58.10
10062;DHT22;5070;52.382;5.270;2024-03-25T04:33:17;20.30;58.10
10062;DHT22;5070;52.382;5.270;2024-03-25T04:35:45;20.20;58.40
10062;DHT22;5070;52.382;5.270;2024-03-25T04:38:11;20.20;58.70
10062;DHT22;5070;52.382;5.270;2024-03-25T04:40:38;20.30;58.80
10062;DHT22;5070;52.382;5.270;2024-03-25T04:43:04;20.20;58.30
10062;DHT22;5070;52.382;5.270;2024-03-25T04:45:31;20.20;58.10
10062;DHT22;5070;52.382;5.270;2024-03-25T04:47:57;20.20;58.30
10062;DHT22;5070;52.382;5.270;2024-03-25T04:50:24;20.20;58.30
10062;DHT22;5070;52.382;5.270;2024-03-25T04:52:50;20.10;58.30
10062;DHT22;5070;52.382;5.270;2024-03-25T04:55:16;20.10;58.30
10062;DHT22;5070;52.382;5.270;2024-03-25T04:57:43;20.10;58.20
10062;DHT22;5070;52.382;5.270;2024-03-25T05:00:10;20.10;58.10
10062;DHT22;5070;52.382;5.270;2024-03-25T05:02:40;20.10;58.10
10062;DHT22;5070;52.382;5.270;2024-03-25T05:05:06;20.10;58.20
10062;DHT22;5070;52.382;5.270;2024-03-25T05:07:33;20.00;58.10
10062;DHT22;5070;52.382;5.270;2024-03-25T05:09:59;20.00;58.00
10062;DHT22;5070;52.382;5.270;2024-03-25T05:12:25;20.00;58.10
10062;DHT22;5070;52.382;5.270;2024-03-25T05:14:51;20.00;58.10
10062;DHT22;5070;52.382;5.270;2024-03-25T05:17:17;20.00;58.00
10062;DHT22;5070;52.382;5.270;2024-03-25T05:19:45;19.90;58.00
10062;DHT22;5070;52.382;5.270;2024-03-25T05:22:11;19.90;58.00
10062;DHT22;5070;52.382;5.270;2024-03-25T05:24:37;19.90;58.00
10062;DHT22;5070;52.382;5.270;2024-03-25T05:27:03;19.90;58.00
10062;DHT22;5070;52.382;5.270;2024-03-25T05:29:30;19.90;58.00
10062;DHT22;5070;52.382;5.270;2024-03-25T05:31:57;19.90;57.90
10062;DHT22;5070;52.382;5.270;2024-03-25T05:34:24;19.80;57.80
10062;DHT22;5070;52.382;5.270;2024-03-25T05:36:51;19.80;57.80
10062;DHT22;5070;52.382;5.270;2024-03-25T05:39:18;19.80;57.80
10062;DHT22;5070;52.382;5.270;2024-03-25T05:41:48;19.80;57.80
10062;DHT22;5070;52.382;5.270;2024-03-25T05:44:14;19.80;57.80
10062;DHT22;5070;52.382;5.270;2024-03-25T05:46:40;19.80;57.80
10062;DHT22;5070;52.382;5.270;2024-03-25T05:49:06;19.80;57.70
10062;DHT22;5070;52.382;5.270;2024-03-25T05:51:33;19.80;57.80
10062;DHT22;5070;52.382;5.270;2024-03-25T05:54:01;19.80;57.90
10062;DHT22;5070;52.382;5.270;2024-03-25T05:56:27;19.90;57.80
10062;DHT22;5070;52.382;5.270;2024-03-25T05:58:54;20.00;57.70
10062;DHT22;5070;52.382;5.270;2024-03-25T06:01:20;20.10;57.50
10062;DHT22;5070;52.382;5.270;2024-03-25T06:03:46;20.20;57.60
10062;DHT22;5070;52.382;5.270;2024-03-25T06:06:13;20.30;57.50
10062;DHT22;5070;52.382;5.270;2024-03-25T06:08:39;20.30;57.20
10062;DHT22;5070;52.382;5.270;2024-03-25T06:11:07;20.40;57.30
10062;DHT22;5070;52.382;5.270;2024-03-25T06:13:33;20.40;57.10
10062;DHT22;5070;52.382;5.270;2024-03-25T06:15:59;20.40;57.10
10062;DHT22;5070;52.382;5.270;2024-03-25T06:18:26;20.40;57.10
10062;DHT22;5070;52.382;5.270;2024-03-25T06:20:52;20.40;57.00
10062;DHT22;5070;52.382;5.270;2024-03-25T06:23:24;20.50;57.10
10062;DHT22;5070;52.382;5.270;2024-03-25T06:25:52;20.50;57.00
10062;DHT22;5070;52.382;5.270;2024-03-25T06:28:20;20.60;56.80
10062;DHT22;5070;52.382;5.270;2024-03-25T06:30:46;20.60;56.80
10062;DHT22;5070;52.382;5.270;2024-03-25T06:33:31;20.60;56.60
10062;DHT22;5070;52.382;5.270;2024-03-25T06:36:16;20.70;56.40
10062;DHT22;5070;52.382;5.270;2024-03-25T06:38:42;20.70;56.40
10062;DHT22;5070;52.382;5.270;2024-03-25T06:41:08;20.70;56.40
10062;DHT22;5070;52.382;5.270;2024-03-25T06:43:36;20.80;56.40
10062;DHT22;5070;52.382;5.270;2024-03-25T06:46:02;20.80;56.30
10062;DHT22;5070;52.382;5.270;2024-03-25T06:48:29;20.80;56.20
10062;DHT22;5070;52.382;5.270;2024-03-25T06:50:56;20.80;56.20
10062;DHT22;5070;52.382;5.270;2024-03-25T06:53:23;20.90;56.20
10062;DHT22;5070;52.382;5.270;2024-03-25T06:55:53;20.90;56.20
10062;DHT22;5070;52.382;5.270;2024-03-25T06:58:20;20.90;56.10
10062;DHT22;5070;52.382;5.270;2024-03-25T07:00:48;21.00;56.10
10062;DHT22;5070;52.382;5.270;2024-03-25T07:03:15;21.00;56.00
10062;DHT22;5070;52.382;5.270;2024-03-25T07:05:41;21.10;56.00
10062;DHT22;5070;52.382;5.270;2024-03-25T07:08:07;21.10;55.90
10062;DHT22;5070;52.382;5.270;2024-03-25T07:10:33;21.20;55.90
10062;DHT22;5070;52.382;5.270;2024-03-25T07:13:00;21.30;55.90
10062;DHT22;5070;52.382;5.270;2024-03-25T07:15:26;21.30;55.80
10062;DHT22;5070;52.382;5.270;2024-03-25T07:17:53;21.30;55.90
10062;DHT22;5070;52.382;5.270;2024-03-25T07:20:19;21.30;55.90
10062;DHT22;5070;52.382;5.270;2024-03-25T07:22:45;21.40;56.00
10062;DHT22;5070;52.382;5.270;2024-03-25T07:25:12;21.40;55.90
10062;DHT22;5070;52.382;5.270;2024-03-25T07:27:38;21.50;55.90
10062;DHT22;5070;52.382;5.270;2024-03-25T07:30:05;21.50;55.90
10062;DHT22;5070;52.382;5.270;2024-03-25T07:32:31;21.50;55.90
10062;DHT22;5070;52.382;5.270;2024-03-25T07:34:59;21.50;56.10
10062;DHT22;5070;52.382;5.270;2024-03-25T07:37:25;21.50;57.30
10062;DHT22;5070;52.382;5.270;2024-03-25T07:39:51;21.50;58.00
10062;DHT22;5070;52.382;5.270;2024-03-25T07:42:17;21.50;56.80
10062;DHT22;5070;52.382;5.270;2024-03-25T07:44:43;21.50;57.10
10062;DHT22;5070;52.382;5.270;2024-03-25T07:47:09;21.40;57.00
10062;DHT22;5070;52.382;5.270;2024-03-25T07:49:35;21.50;57.10
10062;DHT22;5070;52.382;5.270;2024-03-25T07:52:04;21.50;57.20
10062;DHT22;5070;52.382;5.270;2024-03-25T07:54:30;21.50;57.40
10062;DHT22;5070;52.382;5.270;2024-03-25T07:56:56;21.50;57.40
10062;DHT22;5070;52.382;5.270;2024-03-25T07:59:22;21.50;57.40
10062;DHT22;5070;52.382;5.270;2024-03-25T08:01:48;21.50;57.40
10062;DHT22;5070;52.382;5.270;2024-03-25T08:04:14;21.50;57.30
10062;DHT22;5070;52.382;5.270;2024-03-25T08:06:40;21.50;57.40
10062;DHT22;5070;52.382;5.270;2024-03-25T08:09:08;21.50;57.40
10062;DHT22;5070;52.382;5.270;2024-03-25T08:11:35;21.50;57.40
10062;DHT22;5070;52.382;5.270;2024-03-25T08:14:01;21.50;57.40
10062;DHT22;5070;52.382;5.270;2024-03-25T08:16:27;21.50;57.40
10062;DHT22;5070;52.382;5.270;2024-03-25T08:18:53;21.60;57.60
10062;DHT22;5070;52.382;5.270;2024-03-25T08:21:20;21.60;57.50
10062;DHT22;5070;52.382;5.270;2024-03-25T08:23:46;21.60;57.50
10062;DHT22;5070;52.382;5.270;2024-03-25T08:26:13;21.60;57.50
10062;DHT22;5070;52.382;5.270;2024-03-25T08:28:40;21.60;57.60
10062;DHT22;5070;52.382;5.270;2024-03-25T08:31:06;21.60;57.50
10062;DHT22;5070;52.382;5.270;2024-03-25T08:33:32;21.60;57.40
10062;DHT22;5070;52.382;5.270;2024-03-25T08:35:58;21.60;57.40
10062;DHT22;5070;52.382;5.270;2024-03-25T08:38:24;21.60;57.40
10062;DHT22;5070;52.382;5.270;2024-03-25T08:40:51;21.70;57.40
10062;DHT22;5070;52.382;5.270;2024-03-25T08:43:18;21.70;57.30
10062;DHT22;5070;52.382;5.270;2024-03-25T08:45:45;21.70;57.30
10062;DHT22;5070;52.382;5.270;2024-03-25T08:48:11;21.70;57.30
10062;DHT22;5070;52.382;5.270;2024-03-25T08:50:37;21.70;57.30
10062;DHT22;5070;52.382;5.270;2024-03-25T08:53:04;21.70;57.30
10062;DHT22;5070;52.382;5.270;2024-03-25T08:55:30;21.70;57.30
10062;DHT22;5070;52.382;5.270;2024-03-25T08:57:56;21.70;57.30
10062;DHT22;5070;52.382;5.270;2024-03-25T09:00:24;21.70;57.30
10062;DHT22;5070;52.382;5.270;2024-03-25T09:02:50;21.70;57.30
10062;DHT22;5070;52.382;5.270;2024-03-25T09:05:17;21.80;57.40
10062;DHT22;5070;52.382;5.270;2024-03-25T09:07:44;21.80;57.30
10062;DHT22;5070;52.382;5.270;2024-03-25T09:10:11;21.80;57.30
10062;DHT22;5070;52.382;5.270;2024-03-25T09:12:55;21.80;57.30
10062;DHT22;5070;52.382;5.270;2024-03-25T09:15:21;21.80;57.20
10062;DHT22;5070;52.382;5.270;2024-03-25T09:17:49;21.80;57.20
10062;DHT22;5070;52.382;5.270;2024-03-25T09:20:15;21.80;57.20
10062;DHT22;5070;52.382;5.270;2024-03-25T09:22:44;21.80;57.10
10062;DHT22;5070;52.382;5.270;2024-03-25T09:25:10;21.80;57.00
10062;DHT22;5070;52.382;5.270;2024-03-25T09:27:37;21.90;57.10
10062;DHT22;5070;52.382;5.270;2024-03-25T09:30:03;21.90;57.10
10062;DHT22;5070;52.382;5.270;2024-03-25T09:32:30;21.80;57.10
10062;DHT22;5070;52.382;5.270;2024-03-25T09:34:57;21.90;57.10
10062;DHT22;5070;52.382;5.270;2024-03-25T09:37:24;21.80;57.00
10062;DHT22;5070;52.382;5.270;2024-03-25T09:39:50;21.90;57.00
10062;DHT22;5070;52.382;5.270;2024-03-25T09:42:24;21.90;57.00
10062;DHT22;5070;52.382;5.270;2024-03-25T09:44:52;21.90;56.80
10062;DHT22;5070;52.382;5.270;2024-03-25T09:47:19;21.90;56.80
10062;DHT22;5070;52.382;5.270;2024-03-25T09:49:45;21.90;56.70
10062;DHT22;5070;52.382;5.270;2024-03-25T09:52:14;22.00;56.70
10062;DHT22;5070;52.382;5.270;2024-03-25T09:54:40;22.00;56.60
10062;DHT22;5070;52.382;5.270;2024-03-25T09:57:06;22.00;56.70
10062;DHT22;5070;52.382;5.270;2024-03-25T09:59:33;22.00;56.70
10062;DHT22;5070;52.382;5.270;2024-03-25T10:01:59;22.00;56.70
10062;DHT22;5070;52.382;5.270;2024-03-25T10:04:26;22.00;56.70
10062;DHT22;5070;52.382;5.270;2024-03-25T10:06:53;22.00;56.60
10062;DHT22;5070;52.382;5.270;2024-03-25T10:09:20;22.00;56.60
10062;DHT22;5070;52.382;5.270;2024-03-25T10:11:47;22.00;56.60
10062;DHT22;5070;52.382;5.270;2024-03-25T10:14:15;22.00;56.60
10062;DHT22;5070;52.382;5.270;2024-03-25T10:16:42;22.00;56.60
10062;DHT22;5070;52.382;5.270;2024-03-25T10:19:08;22.00;56.60
10062;DHT22;5070;52.382;5.270;2024-03-25T10:21:34;22.00;56.70
10062;DHT22;5070;52.382;5.270;2024-03-25T10:24:01;22.00;56.70
10062;DHT22;5070;52.382;5.270;2024-03-25T10:26:29;22.00;56.70
10062;DHT22;5070;52.382;5.270;2024-03-25T10:29:03;22.00;56.80
10062;DHT22;5070;52.382;5.270;2024-03-25T10:31:31;22.00;56.80
10062;DHT22;5070;52.382;5.270;2024-03-25T10:33:57;22.00;56.80
10062;DHT22;5070;52.382;5.270;2024-03-25T10:36:24;22.00;56.70
10062;DHT22;5070;52.382;5.270;2024-03-25T10:38:55;22.00;56.70
10062;DHT22;5070;52.382;5.270;2024-03-25T10:41:22;22.00;56.80
10062;DHT22;5070;52.382;5.270;2024-03-25T10:43:49;22.00;56.90
10062;DHT22;5070;52.382;5.270;2024-03-25T10:46:19;22.00;56.90
10062;DHT22;5070;52.382;5.270;2024-03-25T10:48:52;22.00;56.90
10062;DHT22;5070;52.382;5.270;2024-03-25T10:51:21;22.00;56.90
10062;DHT22;5070;52.382;5.270;2024-03-25T10:53:51;22.00;56.90
10062;DHT22;5070;52.382;5.270;2024-03-25T10:56:20;22.00;56.90
10062;DHT22;5070;52.382;5.270;2024-03-25T10:58:48;22.00;56.90
10062;DHT22;5070;52.382;5.270;2024-03-25T11:01:17;22.00;56.80
10062;DHT22;5070;52.382;5.270;2024-03-25T11:03:44;22.00;56.70
10062;DHT22;5070;52.382;5.270;2024-03-25T11:06:12;22.00;56.70
10062;DHT22;5070;52.382;5.270;2024-03-25T11:16:32;22.00;56.80
10062;DHT22;5070;52.382;5.270;2024-03-25T11:19:01;22.00;56.80
10062;DHT22;5070;52.382;5.270;2024-03-25T11:21:28;22.00;56.80
10062;DHT22;5070;52.382;5.270;2024-03-25T11:23:54;22.00;56.80
10062;DHT22;5070;52.382;5.270;2024-03-25T11:26:21;22.00;56.80
10062;DHT22;5070;52.382;5.270;2024-03-25T11:28:47;22.00;56.70
10062;DHT22;5070;52.382;5.270;2024-03-25T11:31:14;22.00;56.60
10062;DHT22;5070;52.382;5.270;2024-03-25T11:33:42;22.00;56.50
10062;DHT22;5070;52.382;5.270;2024-03-25T11:36:09;22.00;56.40
10062;DHT22;5070;52.382;5.270;2024-03-25T11:38:36;22.10;56.40
10062;DHT22;5070;52.382;5.270;2024-03-25T11:41:02;22.10;56.30
10062;DHT22;5070;52.382;5.270;2024-03-25T11:43:29;22.10;56.30
10062;DHT22;5070;52.382;5.270;2024-03-25T11:45:55;22.10;56.20
10062;DHT22;5070;52.382;5.270;2024-03-25T11:48:21;22.20;56.10
10062;DHT22;5070;52.382;5.270;2024-03-25T11:50:48;22.30;56.00
10062;DHT22;5070;52.382;5.270;2024-03-25T11:53:17;22.40;55.90
10062;DHT22;5070;52.382;5.270;2024-03-25T11:55:46;22.40;55.80
10062;DHT22;5070;52.382;5.270;2024-03-25T11:58:13;22.40;55.90
10062;DHT22;5070;52.382;5.270;2024-03-25T12:00:43;22.50;55.80
10062;DHT22;5070;52.382;5.270;2024-03-25T12:03:11;22.50;55.70
10062;DHT22;5070;52.382;5.270;2024-03-25T12:05:39;22.50;55.60
10062;DHT22;5070;52.382;5.270;2024-03-25T12:08:08;22.60;55.70
10062;DHT22;5070;52.382;5.270;2024-03-25T12:10:34;22.60;55.60
10062;DHT22;5070;52.382;5.270;2024-03-25T12:13:19;22.60;55.50
10062;DHT22;5070;52.382;5.270;2024-03-25T12:15:46;22.70;55.50
10062;DHT22;5070;52.382;5.270;2024-03-25T12:18:13;22.70;55.50
10062;DHT22;5070;52.382;5.270;2024-03-25T12:20:39;22.70;55.50
10062;DHT22;5070;52.382;5.270;2024-03-25T12:23:07;22.60;55.50
10062;DHT22;5070;52.382;5.270;2024-03-25T12:25:33;22.60;55.50
10062;DHT22;5070;52.382;5.270;2024-03-25T12:27:59;22.70;55.50
10062;DHT22;5070;52.382;5.270;2024-03-25T12:30:29;22.70;55.50
10062;DHT22;5070;52.382;5.270;2024-03-25T12:32:55;22.70;55.40
10062;DHT22;5070;52.382;5.270;2024-03-25T12:35:21;22.80;55.40
10062;DHT22;5070;52.382;5.270;2024-03-25T12:37:47;22.80;55.30
10062;DHT22;5070;52.382;5.270;2024-03-25T12:40:26;22.80;55.30
10062;DHT22;5070;52.382;5.270;2024-03-25T12:42:53;22.80;55.30
10062;DHT22;5070;52.382;5.270;2024-03-25T12:45:19;22.90;55.30
10062;DHT22;5070;52.382;5.270;2024-03-25T12:47:45;22.90;55.30
10062;DHT22;5070;52.382;5.270;2024-03-25T12:50:12;22.90;55.60
10062;DHT22;5070;52.382;5.270;2024-03-25T12:52:38;22.80;56.60
10062;DHT22;5070;52.382;5.270;2024-03-25T12:55:04;22.90;58.00
10062;DHT22;5070;52.382;5.270;2024-03-25T12:57:32;23.00;66.60
10062;DHT22;5070;52.382;5.270;2024-03-25T12:59:58;23.10;61.20
10062;DHT22;5070;52.382;5.270;2024-03-25T13:02:24;23.20;60.60
10062;DHT22;5070;52.382;5.270;2024-03-25T13:04:52;23.20;59.40
10062;DHT22;5070;52.382;5.270;2024-03-25T13:07:19;23.10;59.20
10062;DHT22;5070;52.382;5.270;2024-03-25T13:09:45;23.20;58.60
10062;DHT22;5070;52.382;5.270;2024-03-25T13:12:11;23.30;58.00
10062;DHT22;5070;52.382;5.270;2024-03-25T13:14:39;23.20;58.10
10062;DHT22;5070;52.382;5.270;2024-03-25T13:17:05;23.10;58.10
10062;DHT22;5070;52.382;5.270;2024-03-25T13:19:31;23.10;58.20
10062;DHT22;5070;52.382;5.270;2024-03-25T13:21:57;23.10;58.30
10062;DHT22;5070;52.382;5.270;2024-03-25T13:24:25;23.20;58.30
10062;DHT22;5070;52.382;5.270;2024-03-25T13:26:51;23.20;58.10
10062;DHT22;5070;52.382;5.270;2024-03-25T13:29:18;23.20;58.10
10062;DHT22;5070;52.382;5.270;2024-03-25T13:31:45;23.10;57.90
10062;DHT22;5070;52.382;5.270;2024-03-25T13:34:11;23.10;57.90
10062;DHT22;5070;52.382;5.270;2024-03-25T13:36:37;23.10;58.00
10062;DHT22;5070;52.382;5.270;2024-03-25T13:39:03;23.10;58.10
10062;DHT22;5070;52.382;5.270;2024-03-25T13:41:31;23.00;58.00
10062;DHT22;5070;52.382;5.270;2024-03-25T13:43:57;23.00;58.10
10062;DHT22;5070;52.382;5.270;2024-03-25T13:46:23;22.90;58.30
10062;DHT22;5070;52.382;5.270;2024-03-25T13:48:51;22.90;58.20
10062;DHT22;5070;52.382;5.270;2024-03-25T13:51:17;22.90;58.10
10062;DHT22;5070;52.382;5.270;2024-03-25T13:53:43;22.80;58.00
10062;DHT22;5070;52.382;5.270;2024-03-25T13:56:09;22.80;58.10
10062;DHT22;5070;52.382;5.270;2024-03-25T13:58:35;22.80;58.20
10062;DHT22;5070;52.382;5.270;2024-03-25T14:01:02;22.70;58.10
10062;DHT22;5070;52.382;5.270;2024-03-25T14:03:28;22.70;58.30
10062;DHT22;5070;52.382;5.270;2024-03-25T14:05:55;22.60;58.20
10062;DHT22;5070;52.382;5.270;2024-03-25T14:08:22;22.60;58.30
10062;DHT22;5070;52.382;5.270;2024-03-25T14:10:57;22.60;58.00
10062;DHT22;5070;52.382;5.270;2024-03-25T14:13:23;22.60;58.10
10062;DHT22;5070;52.382;5.270;2024-03-25T14:15:49;22.60;57.80
10062;DHT22;5070;52.382;5.270;2024-03-25T14:18:15;22.60;57.70
10062;DHT22;5070;52.382;5.270;2024-03-25T14:20:41;22.60;57.60
10062;DHT22;5070;52.382;5.270;2024-03-25T14:23:09;22.60;57.80
10062;DHT22;5070;52.382;5.270;2024-03-25T14:25:35;22.50;57.70
10062;DHT22;5070;52.382;5.270;2024-03-25T14:28:04;22.50;57.90
10062;DHT22;5070;52.382;5.270;2024-03-25T14:30:31;22.50;58.00
10062;DHT22;5070;52.382;5.270;2024-03-25T14:32:57;22.50;58.10
10062;DHT22;5070;52.382;5.270;2024-03-25T14:35:23;22.50;58.10
10062;DHT22;5070;52.382;5.270;2024-03-25T14:37:49;22.50;58.40
10062;DHT22;5070;52.382;5.270;2024-03-25T14:40:16;22.40;58.40
10062;DHT22;5070;52.382;5.270;2024-03-25T14:42:43;22.40;58.70
10062;DHT22;5070;52.382;5.270;2024-03-25T14:45:11;22.40;58.40
10062;DHT22;5070;52.382;5.270;2024-03-25T14:47:37;22.40;58.40
10062;DHT22;5070;52.382;5.270;2024-03-25T14:50:04;22.40;58.30
10062;DHT22;5070;52.382;5.270;2024-03-25T14:52:31;22.40;58.20
10062;DHT22;5070;52.382;5.270;2024-03-25T14:54:58;22.40;58.20
10062;DHT22;5070;52.382;5.270;2024-03-25T14:57:26;22.40;58.00
10062;DHT22;5070;52.382;5.270;2024-03-25T14:59:52;22.40;57.90
10062;DHT22;5070;52.382;5.270;2024-03-25T15:02:18;22.40;57.80
10062;DHT22;5070;52.382;5.270;2024-03-25T15:04:44;22.50;57.70
10062;DHT22;5070;52.382;5.270;2024-03-25T15:07:11;22.60;57.30
10062;DHT22;5070;52.382;5.270;2024-03-25T15:09:37;22.80;56.90
10062;DHT22;5070;52.382;5.270;2024-03-25T15:12:03;22.80;56.60
10062;DHT22;5070;52.382;5.270;2024-03-25T15:14:31;22.80;56.80
10062;DHT22;5070;52.382;5.270;2024-03-25T15:16:57;22.80;56.80
10062;DHT22;5070;52.382;5.270;2024-03-25T15:19:24;22.80;56.80
10062;DHT22;5070;52.382;5.270;2024-03-25T15:21:50;22.80;56.80
10062;DHT22;5070;52.382;5.270;2024-03-25T15:24:16;22.70;56.90
10062;DHT22;5070;52.382;5.270;2024-03-25T15:26:43;22.70;57.00
10062;DHT22;5070;52.382;5.270;2024-03-25T15:29:09;22.60;57.00
10062;DHT22;5070;52.382;5.270;2024-03-25T15:31:37;22.60;57.10
10062;DHT22;5070;52.382;5.270;2024-03-25T15:34:03;22.50;57.10
10062;DHT22;5070;52.382;5.270;2024-03-25T15:36:30;22.50;57.10
10062;DHT22;5070;52.382;5.270;2024-03-25T15:38:56;22.50;57.10
10062;DHT22;5070;52.382;5.270;2024-03-25T15:41:22;22.40;57.00
10062;DHT22;5070;52.382;5.270;2024-03-25T15:43:51;22.40;57.00
10062;DHT22;5070;52.382;5.270;2024-03-25T15:46:17;22.40;57.00
10062;DHT22;5070;52.382;5.270;2024-03-25T15:48:47;22.40;57.00
10062;DHT22;5070;52.382;5.270;2024-03-25T15:51:13;22.30;56.90